createdAt,value
2023-02-15T00:00:15.292Z,23.53
2023-02-15T00:01:17.525Z,21.53
2023-02-15T00:02:20.890Z,21.80
2023-02-15T00:03:23.212Z,21.87
2023-02-15T00:04:46.536Z,21.77
2023-02-15T00:05:48.684Z,21.07
2023-02-15T00:06:51.160Z,21.53
2023-02-15T00:07:53.332Z,21.67
2023-02-15T00:08:56.329Z,21.27
2023-02-15T00:09:58.535Z,20.77
2023-02-15T00:11:13.095Z,21.97
2023-02-15T00:12:17.593Z,21.63
2023-02-15T00:13:21.246Z,20.40
2023-02-15T00:14:24.833Z,21.30
2023-02-15T00:15:27.075Z,20.50
2023-02-15T00:16:29.253Z,20.30
2023-02-15T00:17:31.490Z,20.53
2023-02-15T00:18:34.245Z,21.43
2023-02-15T00:19:37.060Z,21.67
2023-02-15T00:20:39.182Z,20.63
2023-02-15T00:21:41.632Z,20.40
2023-02-15T00:22:44.132Z,21.00
2023-02-15T00:23:46.263Z,21.13
2023-02-15T00:24:48.436Z,19.83
2023-02-15T00:25:52.166Z,21.40
2023-02-15T00:26:54.441Z,20.67
2023-02-15T00:27:56.817Z,21.03
2023-02-15T00:29:00.096Z,20.50
2023-02-15T00:30:02.736Z,20.47
2023-02-15T00:31:11.288Z,21.03
2023-02-15T00:32:16.683Z,19.87
2023-02-15T00:33:19.276Z,20.33
2023-02-15T00:34:24.690Z,19.57
2023-02-15T00:35:27.857Z,20.93
2023-02-15T00:36:30.268Z,20.87
2023-02-15T00:37:32.410Z,20.67
2023-02-15T00:38:36.079Z,20.30
2023-02-15T00:39:38.284Z,19.37
2023-02-15T00:40:41.735Z,20.27
2023-02-15T00:41:44.543Z,20.30
2023-02-15T00:42:47.303Z,20.63
2023-02-15T00:43:50.947Z,19.97
2023-02-15T00:44:53.148Z,20.43
2023-02-15T00:45:57.009Z,20.60
2023-02-15T00:46:59.204Z,19.80
2023-02-15T00:48:01.501Z,20.33
2023-02-15T00:49:04.773Z,19.87
2023-02-15T00:50:07.733Z,20.67
2023-02-15T00:51:09.974Z,20.30
2023-02-15T00:52:12.251Z,20.77
2023-02-15T00:53:14.422Z,21.53
2023-02-15T00:54:16.659Z,20.30
2023-02-15T00:55:19.904Z,20.80
2023-02-15T00:56:22.254Z,21.43
2023-02-15T00:57:25.825Z,19.57
2023-02-15T00:58:28.063Z,20.10
2023-02-15T00:59:30.262Z,18.53
2023-02-15T01:00:32.545Z,19.80
2023-02-15T01:01:34.763Z,21.00
2023-02-15T01:02:36.950Z,20.73
2023-02-15T01:03:39.488Z,19.70
2023-02-15T01:04:41.804Z,19.97
2023-02-15T01:05:44.231Z,20.07
2023-02-15T01:06:46.366Z,18.77
2023-02-15T01:07:48.516Z,19.37
2023-02-15T01:08:53.991Z,19.47
2023-02-15T01:09:56.221Z,19.40
2023-02-15T01:11:03.389Z,19.67
2023-02-15T01:12:06.704Z,18.67
2023-02-15T01:13:08.894Z,19.40
2023-02-15T01:14:11.672Z,18.53
2023-02-15T01:15:14.752Z,19.60
2023-02-15T01:16:17.483Z,19.63
2023-02-15T01:17:19.640Z,19.23
2023-02-15T01:18:22.937Z,19.87
2023-02-15T01:19:25.100Z,19.10
2023-02-15T01:20:29.032Z,18.87
2023-02-15T01:21:31.278Z,19.00
2023-02-15T01:22:33.459Z,18.90
2023-02-15T01:23:38.512Z,18.47
2023-02-15T01:24:41.398Z,18.87
2023-02-15T01:25:44.734Z,19.60
2023-02-15T01:26:46.891Z,18.93
2023-02-15T01:27:49.249Z,19.23
2023-02-15T01:28:51.384Z,19.13
2023-02-15T01:29:53.692Z,18.93
2023-02-15T01:30:57.907Z,19.03
2023-02-15T01:32:00.218Z,19.10
2023-02-15T01:33:02.485Z,18.43
2023-02-15T01:34:06.862Z,18.37
2023-02-15T01:35:10.541Z,19.40
2023-02-15T01:36:12.736Z,18.33
2023-02-15T01:37:14.966Z,18.60
2023-02-15T01:38:17.844Z,18.07
2023-02-15T01:39:19.991Z,18.87
2023-02-15T01:40:22.379Z,18.60
2023-02-15T01:41:25.023Z,18.60
2023-02-15T01:42:29.133Z,17.43
2023-02-15T01:43:45.101Z,19.17
2023-02-15T01:44:57.351Z,17.97
2023-02-15T01:46:00.757Z,18.40
2023-02-15T01:47:04.373Z,17.87
2023-02-15T01:48:22.483Z,18.17
2023-02-15T01:49:28.005Z,18.20
2023-02-15T01:50:42.946Z,17.97
2023-02-15T01:51:47.214Z,17.33
2023-02-15T01:53:21.750Z,18.43
2023-02-15T01:54:32.693Z,17.03
2023-02-15T01:55:40.579Z,17.80
2023-02-15T01:56:43.217Z,18.60
2023-02-15T01:57:47.644Z,18.10
2023-02-15T01:58:54.976Z,18.03
2023-02-15T02:00:01.868Z,18.07
2023-02-15T02:01:14.823Z,17.23
2023-02-15T02:02:21.923Z,17.90
2023-02-15T02:03:44.811Z,17.27
2023-02-15T02:04:52.644Z,17.53
2023-02-15T02:05:54.847Z,17.23
2023-02-15T02:06:59.886Z,19.33
2023-02-15T02:08:03.747Z,17.27
2023-02-15T02:09:07.434Z,18.17
2023-02-15T02:10:13.716Z,17.03
2023-02-15T02:11:16.206Z,18.13
2023-02-15T02:12:24.329Z,17.83
2023-02-15T02:13:26.633Z,18.70
2023-02-15T02:14:29.583Z,18.40
2023-02-15T02:15:41.978Z,17.60
2023-02-15T02:17:21.906Z,17.80
2023-02-15T02:18:53.765Z,17.27
2023-02-15T02:20:34.819Z,16.93
2023-02-15T02:21:59.795Z,17.23
2023-02-15T02:23:19.929Z,16.73
2023-02-15T02:25:03.733Z,17.43
2023-02-15T02:26:44.128Z,16.37
2023-02-15T02:27:59.188Z,16.87
2023-02-15T02:29:07.027Z,16.97
2023-02-15T02:30:36.109Z,16.90
2023-02-15T02:32:09.300Z,16.63
2023-02-15T02:33:23.192Z,17.00
2023-02-15T02:34:34.596Z,17.13
2023-02-15T02:36:01.097Z,17.93
2023-02-15T02:37:08.848Z,17.07
2023-02-15T02:38:22.975Z,17.57
2023-02-15T02:39:50.025Z,17.13
2023-02-15T02:41:10.679Z,17.60
2023-02-15T02:42:37.327Z,16.93
2023-02-15T02:44:00.159Z,16.50
2023-02-15T02:45:08.893Z,17.90
2023-02-15T02:46:22.619Z,17.90
2023-02-15T02:47:34.524Z,17.30
2023-02-15T02:48:38.340Z,17.40
2023-02-15T02:49:43.671Z,17.60
2023-02-15T02:50:45.872Z,16.67
2023-02-15T02:51:48.004Z,17.93
2023-02-15T02:52:54.884Z,18.00
2023-02-15T02:54:01.956Z,18.03
2023-02-15T02:55:14.250Z,16.97
2023-02-15T02:56:40.523Z,18.60
2023-02-15T02:58:09.859Z,17.07
2023-02-15T02:59:21.163Z,16.97
2023-02-15T03:00:27.204Z,17.07
2023-02-15T03:02:14.917Z,17.67
2023-02-15T03:03:26.742Z,16.53
2023-02-15T03:04:37.670Z,17.40
2023-02-15T03:05:47.905Z,17.10
2023-02-15T03:06:59.540Z,16.50
2023-02-15T03:08:07.175Z,17.00
2023-02-15T03:09:19.826Z,19.00
2023-02-15T03:10:24.889Z,17.20
2023-02-15T03:11:27.319Z,17.20
2023-02-15T03:12:38.991Z,16.93
2023-02-15T03:13:43.353Z,17.07
2023-02-15T03:14:51.353Z,16.67
2023-02-15T03:16:12.755Z,16.97
2023-02-15T03:17:18.215Z,16.90
2023-02-15T03:18:29.158Z,17.87
2023-02-15T03:19:35.857Z,17.17
2023-02-15T03:20:39.461Z,16.67
2023-02-15T03:22:04.943Z,17.17
2023-02-15T03:23:18.556Z,17.00
2023-02-15T03:24:26.249Z,16.63
2023-02-15T03:25:35.270Z,16.43
2023-02-15T03:26:40.230Z,16.50
2023-02-15T03:27:50.790Z,16.73
2023-02-15T03:29:00.665Z,15.87
2023-02-15T03:30:04.071Z,16.40
2023-02-15T03:31:09.553Z,17.53
2023-02-15T03:32:13.943Z,17.03
2023-02-15T03:33:17.054Z,17.03
2023-02-15T03:34:19.852Z,17.07
2023-02-15T03:35:26.668Z,16.60
2023-02-15T03:36:46.723Z,15.60
2023-02-15T03:37:54.791Z,16.70
2023-02-15T03:39:01.714Z,16.27
2023-02-15T03:40:55.042Z,17.43
2023-02-15T03:42:14.212Z,16.63
2023-02-15T03:43:22.418Z,16.53
2023-02-15T03:44:32.560Z,15.83
2023-02-15T03:45:39.541Z,16.20
2023-02-15T03:46:52.220Z,17.13
2023-02-15T03:47:59.822Z,16.30
2023-02-15T03:49:10.170Z,16.97
2023-02-15T03:50:49.082Z,16.00
2023-02-15T03:51:55.824Z,15.87
2023-02-15T03:53:01.078Z,15.47
2023-02-15T03:54:42.855Z,16.90
2023-02-15T03:55:49.614Z,16.33
2023-02-15T03:57:11.893Z,16.50
2023-02-15T03:58:32.477Z,15.67
2023-02-15T03:59:53.550Z,15.93
2023-02-15T04:01:18.952Z,17.13
2023-02-15T04:02:33.546Z,15.73
2023-02-15T04:03:44.362Z,15.87
2023-02-15T04:04:48.555Z,15.83
2023-02-15T04:05:50.928Z,15.83
2023-02-15T04:06:53.198Z,15.93
2023-02-15T04:07:55.437Z,16.17
2023-02-15T04:09:16.405Z,16.07
2023-02-15T04:10:37.413Z,16.90
2023-02-15T04:11:39.678Z,16.17
2023-02-15T04:12:42.281Z,15.80
2023-02-15T04:13:46.094Z,16.23
2023-02-15T04:15:11.865Z,15.80
2023-02-15T04:16:14.120Z,15.23
2023-02-15T04:17:16.886Z,15.50
2023-02-15T04:18:19.105Z,16.27
2023-02-15T04:19:40.464Z,15.27
2023-02-15T04:21:06.254Z,14.43
2023-02-15T04:22:26.773Z,15.27
2023-02-15T04:23:47.304Z,14.60
2023-02-15T04:25:07.870Z,14.33
2023-02-15T04:26:10.095Z,14.20
2023-02-15T04:27:12.488Z,14.80
2023-02-15T04:28:14.645Z,15.10
2023-02-15T04:29:16.833Z,15.53
2023-02-15T04:30:21.467Z,14.60
2023-02-15T04:31:23.788Z,15.07
2023-02-15T04:32:27.767Z,15.00
2023-02-15T04:33:29.976Z,14.30
2023-02-15T04:34:34.468Z,13.83
2023-02-15T04:35:36.731Z,14.03
2023-02-15T04:36:40.168Z,13.87
2023-02-15T04:37:43.070Z,14.20
2023-02-15T04:38:45.969Z,13.80
2023-02-15T04:39:49.560Z,14.30
2023-02-15T04:40:53.125Z,14.27
2023-02-15T04:41:55.708Z,13.70
2023-02-15T04:42:58.039Z,14.37
2023-02-15T04:44:01.712Z,13.53
2023-02-15T04:45:04.670Z,13.03
2023-02-15T04:46:06.975Z,13.57
2023-02-15T04:47:09.368Z,14.93
2023-02-15T04:48:11.591Z,13.90
2023-02-15T04:49:13.883Z,13.77
2023-02-15T04:50:16.059Z,13.63
2023-02-15T04:51:18.232Z,13.67
2023-02-15T04:52:20.534Z,13.13
2023-02-15T04:53:22.813Z,13.43
2023-02-15T04:54:24.979Z,13.63
2023-02-15T04:55:27.966Z,13.63
2023-02-15T04:56:31.319Z,13.03
2023-02-15T04:57:33.560Z,14.17
2023-02-15T04:58:36.759Z,13.40
2023-02-15T04:59:39.632Z,13.47
2023-02-15T05:00:41.852Z,13.17
2023-02-15T05:01:45.504Z,14.00
2023-02-15T05:02:47.757Z,13.83
2023-02-15T05:03:49.956Z,14.53
2023-02-15T05:04:54.490Z,13.00
2023-02-15T05:05:56.714Z,13.27
2023-02-15T05:06:58.928Z,13.60
2023-02-15T05:08:01.548Z,13.63
2023-02-15T05:09:03.945Z,13.70
2023-02-15T05:10:07.002Z,13.53
2023-02-15T05:11:09.227Z,13.63
2023-02-15T05:12:11.560Z,13.10
2023-02-15T05:13:13.768Z,13.53
2023-02-15T05:14:16.508Z,13.37
2023-02-15T05:15:18.906Z,13.80
2023-02-15T05:16:21.213Z,14.03
2023-02-15T05:17:24.417Z,13.37
2023-02-15T05:18:26.589Z,13.23
2023-02-15T05:19:29.792Z,13.80
2023-02-15T05:20:33.208Z,13.87
2023-02-15T05:21:35.702Z,13.90
2023-02-15T05:22:37.881Z,13.87
2023-02-15T05:23:40.202Z,13.73
2023-02-15T05:25:00.643Z,13.40
2023-02-15T05:26:21.446Z,12.90
2023-02-15T05:27:42.504Z,12.13
2023-02-15T05:28:44.802Z,12.83
2023-02-15T05:29:49.309Z,13.27
2023-02-15T05:31:02.094Z,13.33
2023-02-15T05:32:05.612Z,13.53
2023-02-15T05:33:08.561Z,13.70
2023-02-15T05:34:10.701Z,13.17
2023-02-15T05:35:15.856Z,13.23
2023-02-15T05:36:19.406Z,14.03
2023-02-15T05:37:23.350Z,13.13
2023-02-15T05:38:25.702Z,13.23
2023-02-15T05:39:29.267Z,13.00
2023-02-15T05:40:31.442Z,13.20
2023-02-15T05:41:33.965Z,13.20
2023-02-15T05:42:36.129Z,13.57
2023-02-15T05:43:39.304Z,13.73
2023-02-15T05:44:41.536Z,13.60
2023-02-15T05:45:52.077Z,13.07
2023-02-15T05:46:54.262Z,13.13
2023-02-15T05:47:56.894Z,13.50
2023-02-15T05:48:59.031Z,13.60
2023-02-15T05:50:01.194Z,13.40
2023-02-15T05:51:04.909Z,14.47
2023-02-15T05:52:07.178Z,13.00
2023-02-15T05:53:09.419Z,13.47
2023-02-15T05:54:11.847Z,13.17
2023-02-15T05:55:14.126Z,14.33
2023-02-15T05:56:16.577Z,14.47
2023-02-15T05:57:18.719Z,14.17
2023-02-15T05:58:21.406Z,14.30
2023-02-15T05:59:24.033Z,14.37
2023-02-15T06:00:26.523Z,14.63
2023-02-15T06:01:29.051Z,15.63
2023-02-15T06:02:35.326Z,15.10
2023-02-15T06:03:37.921Z,15.93
2023-02-15T06:04:40.125Z,15.60
2023-02-15T06:05:42.308Z,15.60
2023-02-15T06:06:44.984Z,15.80
2023-02-15T06:07:47.203Z,15.70
2023-02-15T06:08:49.396Z,16.13
2023-02-15T06:09:51.617Z,14.70
2023-02-15T06:10:53.948Z,15.30
2023-02-15T06:11:56.320Z,15.40
2023-02-15T06:12:58.739Z,15.43
2023-02-15T06:14:02.453Z,14.83
2023-02-15T06:15:05.467Z,15.13
2023-02-15T06:16:08.029Z,14.70
2023-02-15T06:17:10.592Z,13.97
2023-02-15T06:18:12.771Z,13.97
2023-02-15T06:19:16.235Z,12.93
2023-02-15T06:20:20.077Z,14.00
2023-02-15T06:21:23.535Z,13.20
2023-02-15T06:22:25.810Z,13.57
2023-02-15T06:23:28.720Z,12.83
2023-02-15T06:24:30.860Z,13.27
2023-02-15T06:25:36.374Z,13.50
2023-02-15T06:26:40.721Z,13.47
2023-02-15T06:27:43.721Z,12.90
2023-02-15T06:28:45.938Z,13.40
2023-02-15T06:29:48.150Z,13.47
2023-02-15T06:30:50.532Z,13.37
2023-02-15T06:31:53.271Z,12.70
2023-02-15T06:32:55.632Z,12.87
2023-02-15T06:34:02.027Z,11.80
2023-02-15T06:35:04.627Z,12.37
2023-02-15T06:36:07.348Z,12.87
2023-02-15T06:37:09.672Z,13.07
2023-02-15T06:38:11.911Z,13.77
2023-02-15T06:39:14.089Z,12.33
2023-02-15T06:40:17.383Z,12.67
2023-02-15T06:41:19.618Z,12.53
2023-02-15T06:42:22.942Z,12.13
2023-02-15T06:43:25.358Z,11.57
2023-02-15T06:44:27.530Z,12.60
2023-02-15T06:45:29.757Z,12.47
2023-02-15T06:46:32.356Z,11.90
2023-02-15T06:47:34.820Z,11.80
2023-02-15T06:48:36.991Z,12.30
2023-02-15T06:49:39.242Z,11.73
2023-02-15T06:50:42.648Z,12.03
2023-02-15T06:51:44.863Z,11.63
2023-02-15T06:52:47.066Z,12.50
2023-02-15T06:53:49.226Z,11.80
2023-02-15T06:54:51.860Z,12.43
2023-02-15T06:55:54.261Z,12.10
2023-02-15T06:56:56.848Z,12.20
2023-02-15T06:58:00.230Z,11.53
2023-02-15T06:59:04.374Z,11.70
2023-02-15T07:00:11.001Z,11.80
2023-02-15T07:01:13.503Z,12.10
2023-02-15T07:02:18.618Z,11.60
2023-02-15T07:03:21.645Z,11.40
2023-02-15T07:04:23.881Z,11.83
2023-02-15T07:05:32.100Z,12.63
2023-02-15T07:06:34.871Z,12.43
2023-02-15T07:07:37.175Z,12.50
2023-02-15T07:08:40.877Z,11.93
2023-02-15T07:09:43.362Z,12.77
2023-02-15T07:10:45.591Z,12.13
2023-02-15T07:12:07.073Z,12.30
2023-02-15T07:13:09.501Z,12.20
2023-02-15T07:14:11.803Z,11.60
2023-02-15T07:15:17.716Z,11.37
2023-02-15T07:16:22.130Z,11.33
2023-02-15T07:17:37.067Z,11.80
2023-02-15T07:18:40.271Z,12.00
2023-02-15T07:19:44.684Z,11.30
2023-02-15T07:20:48.007Z,12.00
2023-02-15T07:21:50.150Z,11.67
2023-02-15T07:22:53.765Z,10.90
2023-02-15T07:23:59.214Z,10.90
2023-02-15T07:25:01.411Z,10.93
2023-02-15T07:26:03.869Z,11.70
2023-02-15T07:27:08.580Z,10.93
2023-02-15T07:28:10.818Z,11.43
2023-02-15T07:29:12.976Z,11.20
2023-02-15T07:30:18.256Z,12.07
2023-02-15T07:31:20.608Z,10.80
2023-02-15T07:32:22.793Z,11.10
2023-02-15T07:33:28.104Z,10.60
2023-02-15T07:34:30.335Z,11.17
2023-02-15T07:35:33.332Z,10.20
2023-02-15T07:36:35.852Z,10.40
2023-02-15T07:37:38.383Z,10.30
2023-02-15T07:38:42.501Z,10.80
2023-02-15T07:39:44.662Z,11.07
2023-02-15T07:40:46.913Z,10.90
2023-02-15T07:41:49.988Z,10.47
2023-02-15T07:42:55.832Z,10.43
2023-02-15T07:43:58.115Z,10.23
2023-02-15T07:45:00.315Z,10.27
2023-02-15T07:46:08.593Z,10.53
2023-02-15T07:47:10.839Z,10.70
2023-02-15T07:48:13.114Z,10.33
2023-02-15T07:49:15.849Z,10.70
2023-02-15T07:50:18.071Z,10.10
2023-02-15T07:51:20.398Z,10.27
2023-02-15T07:52:22.616Z,9.97
2023-02-15T07:53:27.176Z,9.93
2023-02-15T07:54:29.820Z,10.10
2023-02-15T07:55:32.062Z,9.17
2023-02-15T07:56:35.823Z,9.90
2023-02-15T07:57:44.278Z,10.00
2023-02-15T07:58:54.190Z,10.37
2023-02-15T07:59:56.321Z,10.57
2023-02-15T08:00:59.195Z,10.57
2023-02-15T08:02:01.710Z,10.03
2023-02-15T08:03:16.300Z,10.20
2023-02-15T08:04:19.196Z,9.97
2023-02-15T08:05:21.339Z,10.17
2023-02-15T08:06:25.996Z,9.80
2023-02-15T08:07:28.215Z,10.10
2023-02-15T08:08:33.512Z,10.80
2023-02-15T08:09:35.748Z,10.00
2023-02-15T08:10:56.453Z,9.73
2023-02-15T08:11:59.022Z,9.87
2023-02-15T08:13:01.274Z,9.67
2023-02-15T08:14:09.616Z,10.50
2023-02-15T08:15:11.763Z,9.87
2023-02-15T08:16:16.213Z,10.10
2023-02-15T08:17:19.203Z,9.47
2023-02-15T08:18:21.403Z,9.43
2023-02-15T08:19:28.870Z,9.67
2023-02-15T08:20:32.232Z,9.53
2023-02-15T08:21:36.353Z,9.43
2023-02-15T08:22:38.585Z,9.27
2023-02-15T08:23:40.755Z,8.83
2023-02-15T08:24:42.943Z,8.60
2023-02-15T08:25:47.206Z,9.27
2023-02-15T08:26:50.708Z,9.30
2023-02-15T08:27:52.831Z,9.60
2023-02-15T08:28:59.842Z,8.83
2023-02-15T08:30:02.115Z,9.00
2023-02-15T08:31:12.448Z,10.03
2023-02-15T08:32:14.920Z,9.50
2023-02-15T08:33:18.987Z,9.73
2023-02-15T08:34:23.198Z,10.47
2023-02-15T08:35:25.353Z,10.90
2023-02-15T08:36:30.405Z,10.67
2023-02-15T08:37:32.624Z,11.33
2023-02-15T08:38:35.609Z,9.43
2023-02-15T08:39:38.027Z,9.90
2023-02-15T08:40:40.271Z,10.33
2023-02-15T08:41:46.939Z,9.83
2023-02-15T08:42:49.641Z,10.50
2023-02-15T08:43:55.419Z,10.10
2023-02-15T08:44:57.859Z,10.10
2023-02-15T08:46:00.127Z,10.33
2023-02-15T08:47:05.074Z,9.83
2023-02-15T08:48:07.352Z,9.80
2023-02-15T08:49:10.975Z,9.83
2023-02-15T08:50:13.112Z,9.67
2023-02-15T08:51:17.825Z,9.30
2023-02-15T08:52:20.238Z,8.70
2023-02-15T08:53:22.759Z,8.43
2023-02-15T08:54:25.097Z,8.63
2023-02-15T08:55:27.654Z,9.13
2023-02-15T08:56:34.372Z,9.47
2023-02-15T08:57:36.687Z,8.77
2023-02-15T08:58:39.283Z,8.70
2023-02-15T08:59:41.448Z,8.90
2023-02-15T09:00:43.708Z,9.07
2023-02-15T09:01:47.536Z,8.50
2023-02-15T09:02:49.722Z,8.77
2023-02-15T09:03:56.519Z,8.90
2023-02-15T09:04:58.749Z,8.43
2023-02-15T09:06:02.074Z,8.57
2023-02-15T09:07:05.533Z,8.20
2023-02-15T09:08:07.902Z,8.67
2023-02-15T09:09:10.518Z,8.50
2023-02-15T09:10:12.679Z,8.87
2023-02-15T09:11:26.132Z,9.27
2023-02-15T09:12:28.268Z,8.97
2023-02-15T09:13:30.438Z,9.33
2023-02-15T09:14:35.179Z,8.53
2023-02-15T09:15:37.786Z,8.90
2023-02-15T09:16:41.786Z,8.43
2023-02-15T09:17:44.037Z,8.80
2023-02-15T09:18:47.008Z,9.63
2023-02-15T09:19:49.215Z,9.57
2023-02-15T09:20:51.362Z,8.60
2023-02-15T09:21:54.131Z,8.97
2023-02-15T09:22:58.547Z,8.03
2023-02-15T09:24:05.746Z,8.77
2023-02-15T09:25:08.256Z,7.90
2023-02-15T09:26:21.546Z,8.00
2023-02-15T09:27:25.618Z,8.17
2023-02-15T09:28:27.772Z,8.30
2023-02-15T09:29:32.717Z,8.00
2023-02-15T09:30:35.738Z,8.47
2023-02-15T09:31:45.370Z,8.17
2023-02-15T09:32:48.768Z,8.47
2023-02-15T09:33:51.252Z,8.20
2023-02-15T09:34:53.389Z,8.50
2023-02-15T09:35:55.578Z,8.40
2023-02-15T09:36:57.813Z,7.67
2023-02-15T09:37:59.931Z,7.67
2023-02-15T09:39:06.963Z,7.70
2023-02-15T09:40:09.520Z,7.97
2023-02-15T09:41:36.168Z,7.90
2023-02-15T09:42:49.314Z,8.10
2023-02-15T09:44:16.506Z,8.40
2023-02-15T09:45:28.016Z,8.53
2023-02-15T09:46:43.112Z,8.17
2023-02-15T09:47:48.646Z,7.60
2023-02-15T09:48:56.408Z,7.80
2023-02-15T09:50:20.263Z,8.50
2023-02-15T09:52:13.185Z,7.60
2023-02-15T09:53:33.599Z,8.50
2023-02-15T09:54:52.970Z,8.50
2023-02-15T09:55:57.785Z,8.17
2023-02-15T09:57:09.492Z,8.27
2023-02-15T09:58:39.199Z,8.30
2023-02-15T10:00:05.265Z,8.30
2023-02-15T10:01:20.871Z,8.23
2023-02-15T10:02:29.651Z,8.87
2023-02-15T10:03:57.316Z,8.70
2023-02-15T10:05:20.822Z,8.60
2023-02-15T10:06:47.746Z,8.77
2023-02-15T10:07:56.362Z,8.67
2023-02-15T10:09:12.029Z,8.07
2023-02-15T10:10:33.107Z,8.70
2023-02-15T10:12:12.167Z,9.00
2023-02-15T10:13:47.189Z,8.87
2023-02-15T10:14:59.093Z,8.30
2023-02-15T10:16:19.456Z,8.57
2023-02-15T10:17:27.972Z,8.40
2023-02-15T10:19:02.756Z,8.23
2023-02-15T10:20:30.098Z,8.37
2023-02-15T10:22:02.211Z,8.77
2023-02-15T10:23:14.963Z,8.40
2023-02-15T10:24:17.100Z,8.93
2023-02-15T10:25:37.100Z,8.67
2023-02-15T10:26:45.961Z,8.63
2023-02-15T10:27:50.452Z,8.97
2023-02-15T10:29:08.891Z,8.87
2023-02-15T10:30:14.038Z,8.60
2023-02-15T10:31:27.894Z,9.20
2023-02-15T10:32:33.821Z,9.63
2023-02-15T10:33:44.703Z,9.67
2023-02-15T10:35:25.364Z,8.33
2023-02-15T10:36:54.335Z,8.50
2023-02-15T10:38:06.777Z,8.47
2023-02-15T10:39:32.364Z,8.80
2023-02-15T10:40:50.547Z,8.77
2023-02-15T10:42:12.598Z,9.43
2023-02-15T10:43:21.564Z,9.87
2023-02-15T10:44:48.325Z,9.77
2023-02-15T10:46:17.653Z,10.07
2023-02-15T10:47:49.166Z,10.47
2023-02-15T10:49:00.283Z,10.30
2023-02-15T10:50:24.386Z,10.27
2023-02-15T10:51:46.820Z,10.20
2023-02-15T10:52:58.256Z,10.70
2023-02-15T10:54:21.629Z,10.83
2023-02-15T10:55:26.809Z,11.00
2023-02-15T10:57:14.784Z,10.30
2023-02-15T10:58:31.951Z,11.93
2023-02-15T10:59:45.337Z,11.83
2023-02-15T11:01:26.008Z,11.37
2023-02-15T11:02:42.049Z,11.90
2023-02-15T11:04:22.192Z,11.63
2023-02-15T11:05:36.263Z,11.77
2023-02-15T11:06:42.751Z,11.90
2023-02-15T11:07:48.972Z,12.17
2023-02-15T11:08:55.966Z,12.87
2023-02-15T11:10:17.492Z,12.10
2023-02-15T11:11:25.748Z,12.40
2023-02-15T11:12:30.656Z,13.00
2023-02-15T11:13:39.028Z,12.70
2023-02-15T11:14:56.320Z,13.17
2023-02-15T11:16:05.679Z,12.33
2023-02-15T11:17:18.354Z,11.83
2023-02-15T11:18:28.403Z,11.50
2023-02-15T11:19:47.003Z,11.37
2023-02-15T11:20:59.078Z,11.30
2023-02-15T11:22:05.177Z,11.77
2023-02-15T11:23:17.223Z,12.50
2023-02-15T11:24:21.492Z,11.53
2023-02-15T11:25:33.406Z,12.07
2023-02-15T11:26:41.311Z,11.07
2023-02-15T11:27:47.300Z,11.37
2023-02-15T11:28:58.422Z,11.17
2023-02-15T11:30:13.929Z,11.53
2023-02-15T11:31:20.080Z,11.60
2023-02-15T11:32:36.250Z,11.57
2023-02-15T11:33:44.415Z,11.23
2023-02-15T11:34:54.730Z,10.90
2023-02-15T11:35:59.984Z,11.27
2023-02-15T11:37:08.538Z,11.43
2023-02-15T11:38:21.942Z,11.07
2023-02-15T11:39:29.629Z,11.00
2023-02-15T11:40:36.875Z,11.47
2023-02-15T11:41:44.805Z,11.33
2023-02-15T11:42:51.087Z,10.70
2023-02-15T11:44:02.199Z,11.07
2023-02-15T11:45:27.005Z,10.97
2023-02-15T11:46:30.774Z,10.47
2023-02-15T11:47:33.007Z,10.17
2023-02-15T11:48:35.265Z,10.13
2023-02-15T11:49:38.375Z,10.30
2023-02-15T11:50:42.223Z,10.00
2023-02-15T11:51:44.435Z,9.63
2023-02-15T11:52:46.632Z,9.67
2023-02-15T11:53:50.108Z,9.47
2023-02-15T11:54:53.670Z,9.87
2023-02-15T11:55:56.655Z,9.93
2023-02-15T11:57:11.834Z,9.73
2023-02-15T11:58:38.696Z,9.23
2023-02-15T11:59:44.240Z,9.67
2023-02-15T12:00:50.303Z,10.17
2023-02-15T12:01:52.552Z,9.70
2023-02-15T12:02:58.376Z,9.67
2023-02-15T12:04:25.017Z,10.07
2023-02-15T12:05:27.449Z,10.00
2023-02-15T12:06:34.776Z,9.27
2023-02-15T12:07:58.120Z,9.63
2023-02-15T12:09:26.425Z,10.43
2023-02-15T12:10:38.970Z,9.73
2023-02-15T12:11:41.849Z,10.13
2023-02-15T12:12:44.090Z,9.90
2023-02-15T12:13:58.751Z,10.30
2023-02-15T12:15:04.832Z,10.30
2023-02-15T12:16:11.419Z,10.17
2023-02-15T12:17:14.559Z,10.70
2023-02-15T12:18:41.483Z,9.87
2023-02-15T12:19:46.402Z,9.67
2023-02-15T12:20:50.308Z,10.17
2023-02-15T12:21:54.167Z,9.80
2023-02-15T12:23:06.550Z,10.23
2023-02-15T12:24:21.067Z,9.43
2023-02-15T12:25:30.214Z,9.40
2023-02-15T12:26:38.711Z,9.30
2023-02-15T12:27:44.496Z,9.70
2023-02-15T12:28:53.137Z,10.13
2023-02-15T12:30:03.276Z,10.10
2023-02-15T12:31:20.029Z,10.27
2023-02-15T12:32:28.933Z,9.93
2023-02-15T12:33:36.540Z,9.67
2023-02-15T12:34:42.314Z,10.27
2023-02-15T12:35:47.549Z,10.10
2023-02-15T12:37:08.756Z,10.13
2023-02-15T12:38:10.880Z,10.03
2023-02-15T12:39:12.995Z,11.00
2023-02-15T12:40:30.918Z,11.00
2023-02-15T12:41:33.855Z,11.60
2023-02-15T12:42:45.879Z,11.13
2023-02-15T12:43:48.683Z,10.40
2023-02-15T12:44:53.816Z,10.10
2023-02-15T12:46:24.228Z,9.83
2023-02-15T12:47:30.867Z,9.83
2023-02-15T12:48:34.259Z,10.00
2023-02-15T12:49:47.996Z,10.13
2023-02-15T12:50:55.159Z,10.30
2023-02-15T12:52:23.538Z,10.83
2023-02-15T12:53:34.183Z,10.20
2023-02-15T12:54:42.024Z,10.03
2023-02-15T12:55:54.328Z,9.77
2023-02-15T12:56:58.869Z,9.50
2023-02-15T12:58:19.300Z,9.77
2023-02-15T12:59:23.446Z,9.70
2023-02-15T13:00:29.520Z,9.80
2023-02-15T13:01:33.831Z,10.20
2023-02-15T13:02:44.318Z,10.43
2023-02-15T13:03:57.362Z,10.33
2023-02-15T13:05:17.372Z,10.23
2023-02-15T13:06:22.732Z,11.13
2023-02-15T13:07:31.252Z,10.90
2023-02-15T13:08:47.360Z,10.37
2023-02-15T13:09:51.044Z,10.47
2023-02-15T13:10:56.998Z,10.30
2023-02-15T13:12:27.449Z,9.70
2023-02-15T13:13:36.200Z,9.83
2023-02-15T13:14:39.010Z,10.17
2023-02-15T13:15:43.441Z,10.87
2023-02-15T13:16:48.278Z,11.27
2023-02-15T13:17:50.419Z,10.90
2023-02-15T13:18:53.702Z,10.83
2023-02-15T13:19:59.035Z,10.50
2023-02-15T13:21:14.929Z,11.17
2023-02-15T13:22:23.219Z,11.40
2023-02-15T13:23:31.912Z,11.10
2023-02-15T13:24:40.233Z,11.47
2023-02-15T13:25:51.448Z,11.70
2023-02-15T13:27:12.891Z,11.67
2023-02-15T13:28:21.368Z,11.60
2023-02-15T13:29:27.508Z,11.87
2023-02-15T13:30:36.203Z,11.63
2023-02-15T13:31:42.025Z,11.73
2023-02-15T13:32:44.372Z,11.20
2023-02-15T13:33:52.056Z,11.27
2023-02-15T13:35:06.647Z,11.10
2023-02-15T13:36:21.432Z,10.67
2023-02-15T13:37:45.802Z,10.93
2023-02-15T13:38:59.251Z,10.73
2023-02-15T13:40:09.355Z,10.97
2023-02-15T13:41:19.151Z,11.00
2023-02-15T13:42:31.855Z,11.53
2023-02-15T13:43:55.649Z,10.83
2023-02-15T13:45:27.924Z,10.70
2023-02-15T13:46:45.402Z,10.93
2023-02-15T13:48:00.051Z,10.93
2023-02-15T13:49:27.350Z,10.93
2023-02-15T13:50:52.751Z,10.93
2023-02-15T13:51:57.806Z,11.33
2023-02-15T13:53:21.953Z,10.43
2023-02-15T13:54:45.911Z,10.97
2023-02-15T13:56:03.614Z,9.87
2023-02-15T13:57:20.845Z,10.50
2023-02-15T13:58:31.265Z,10.83
2023-02-15T13:59:57.503Z,10.70
2023-02-15T14:01:07.361Z,10.60
2023-02-15T14:02:12.313Z,10.87
2023-02-15T14:03:26.939Z,10.30
2023-02-15T14:04:52.258Z,10.37
2023-02-15T14:06:28.501Z,9.83
2023-02-15T14:07:33.582Z,10.13
2023-02-15T14:08:58.884Z,9.93
2023-02-15T14:10:27.407Z,10.83
2023-02-15T14:11:52.830Z,10.37
2023-02-15T14:13:13.687Z,10.57
2023-02-15T14:14:51.736Z,10.63
2023-02-15T14:16:04.832Z,10.60
2023-02-15T14:17:13.276Z,10.90
2023-02-15T14:18:42.990Z,11.10
2023-02-15T14:20:25.760Z,11.17
2023-02-15T14:21:35.449Z,11.10
2023-02-15T14:22:44.613Z,10.57
2023-02-15T14:24:10.729Z,11.07
2023-02-15T14:25:32.477Z,11.27
2023-02-15T14:27:05.601Z,10.80
2023-02-15T14:28:17.594Z,10.40
2023-02-15T14:29:57.298Z,11.60
2023-02-15T14:31:00.068Z,10.40
2023-02-15T14:32:11.962Z,10.87
2023-02-15T14:33:34.961Z,10.90
2023-02-15T14:34:50.963Z,11.20
2023-02-15T14:35:55.602Z,11.30
2023-02-15T14:36:59.717Z,11.13
2023-02-15T14:38:07.933Z,11.77
2023-02-15T14:39:51.690Z,11.57
2023-02-15T14:41:25.311Z,11.07
2023-02-15T14:42:58.010Z,11.20
2023-02-15T14:44:29.294Z,10.90
2023-02-15T14:45:44.706Z,11.27
2023-02-15T14:47:49.939Z,11.27
2023-02-15T14:48:59.652Z,11.20
2023-02-15T14:50:31.433Z,11.30
2023-02-15T14:51:49.036Z,11.20